首页
METAR-TAF:

METAR-TAF

机场 :

拉奥罗拉国际机场

瓜地馬拉, 危地马拉

纬度: 14-35N, 经度: 090-31W, 海拔: 1489米

当前天气观测

该预报发布于30分钟前的04:00 UTC
风速18节,风向北转东北
温度 17°C
湿度 82%
气压 1026 hPa
能见度10公里或以上
散云层高于1500英尺

METAR: MGGT 260400Z 02018KT 9999 SCT015 17/14 Q1026 A3030

时间: 22:30 (04:30 UTC)

预报

该预报发布于5小时和30分钟前的23:00 UTC
预报有效从26日的 00点(UTC)到 26日的 24点(UTC)
风速18节,风向
能见度10公里或以上
散云层高于1800英尺
成为
从 26日的 02点(UTC)到 26日的 04点(UTC)
风速14节,风向
能见度10公里或以上
1500米以下无云,无积雨云
成为
从 26日的 09点(UTC)到 24日的 11点(UTC)
风速12节,风向
散云层高于1600英尺
成为
从 26日的 18点(UTC)到 26日的 20点(UTC)
能見度: 8000
少量云层高于2200英尺

TAF: MGGT 252300Z 2600/2624 36018KT 9999 SCT018 TX25/2620Z TN13/2612Z BECMG 2602/2604 36014KT CAVOK BECMG 2609/2411 36012KT SCT016 BECMG 2618/2620 8000 FEW022

超过4000个机场的气象观测和天气预报(METAR&TAF报告)。

可查询的气象台以黄色和红色小点在地图上表示。

将鼠标移到小点上方,可查看气象台名称。

然后点击查看天气观测和预报。

如需切换地图:点击带黑十字的绿色按钮放大地图;点击带横线的绿色按钮缩小地图;或者点击绿色箭头查看邻近地区的地图。


METAR-TAF: